sensor_id;sensor_type;location;lat;lon;timestamp;temperature;humidity
62583;DHT22;48641;51.676;5.808;2023-06-10T00:01:51;25.30;57.60
62583;DHT22;48641;51.676;5.808;2023-06-10T00:04:20;25.30;57.70
62583;DHT22;48641;51.676;5.808;2023-06-10T00:06:46;25.30;57.70
62583;DHT22;48641;51.676;5.808;2023-06-10T00:09:13;25.30;57.70
62583;DHT22;48641;51.676;5.808;2023-06-10T00:11:39;25.30;57.70
62583;DHT22;48641;51.676;5.808;2023-06-10T00:14:05;25.30;57.70
62583;DHT22;48641;51.676;5.808;2023-06-10T00:16:34;25.30;57.70
62583;DHT22;48641;51.676;5.808;2023-06-10T00:19:02;25.30;57.60
62583;DHT22;48641;51.676;5.808;2023-06-10T00:21:29;25.30;57.60
62583;DHT22;48641;51.676;5.808;2023-06-10T00:23:55;25.30;57.60
62583;DHT22;48641;51.676;5.808;2023-06-10T00:26:22;25.30;57.50
62583;DHT22;48641;51.676;5.808;2023-06-10T00:28:48;25.30;57.50
62583;DHT22;48641;51.676;5.808;2023-06-10T00:31:13;25.30;57.60
62583;DHT22;48641;51.676;5.808;2023-06-10T00:33:39;25.30;57.50
62583;DHT22;48641;51.676;5.808;2023-06-10T00:36:05;25.30;57.50
62583;DHT22;48641;51.676;5.808;2023-06-10T00:38:31;25.30;57.50
62583;DHT22;48641;51.676;5.808;2023-06-10T00:40:57;25.30;57.50
62583;DHT22;48641;51.676;5.808;2023-06-10T00:43:22;25.30;57.60
62583;DHT22;48641;51.676;5.808;2023-06-10T00:45:48;25.30;57.60
62583;DHT22;48641;51.676;5.808;2023-06-10T00:48:14;25.30;57.60
62583;DHT22;48641;51.676;5.808;2023-06-10T00:50:39;25.30;57.60
62583;DHT22;48641;51.676;5.808;2023-06-10T00:53:05;25.30;57.50
62583;DHT22;48641;51.676;5.808;2023-06-10T00:55:32;25.30;57.50
62583;DHT22;48641;51.676;5.808;2023-06-10T00:57:58;25.30;57.50
62583;DHT22;48641;51.676;5.808;2023-06-10T01:00:25;25.30;57.50
62583;DHT22;48641;51.676;5.808;2023-06-10T01:02:51;25.30;57.50
62583;DHT22;48641;51.676;5.808;2023-06-10T01:05:18;25.30;57.50
62583;DHT22;48641;51.676;5.808;2023-06-10T01:07:49;25.30;57.50
62583;DHT22;48641;51.676;5.808;2023-06-10T01:13:10;25.20;57.50
62583;DHT22;48641;51.676;5.808;2023-06-10T01:15:40;25.20;57.40
62583;DHT22;48641;51.676;5.808;2023-06-10T01:18:08;25.20;57.50
62583;DHT22;48641;51.676;5.808;2023-06-10T01:20:35;25.20;57.40
62583;DHT22;48641;51.676;5.808;2023-06-10T01:23:03;25.20;57.50
62583;DHT22;48641;51.676;5.808;2023-06-10T01:25:29;25.10;57.70
62583;DHT22;48641;51.676;5.808;2023-06-10T01:28:33;25.10;57.70
62583;DHT22;48641;51.676;5.808;2023-06-10T01:31:34;25.20;57.60
62583;DHT22;48641;51.676;5.808;2023-06-10T01:34:05;25.20;57.50
62583;DHT22;48641;51.676;5.808;2023-06-10T01:36:34;25.10;57.60
62583;DHT22;48641;51.676;5.808;2023-06-10T01:39:00;25.10;57.60
62583;DHT22;48641;51.676;5.808;2023-06-10T01:41:28;25.10;57.60
62583;DHT22;48641;51.676;5.808;2023-06-10T01:43:54;25.10;57.60
62583;DHT22;48641;51.676;5.808;2023-06-10T01:46:20;25.10;57.50
62583;DHT22;48641;51.676;5.808;2023-06-10T01:48:47;25.10;57.50
62583;DHT22;48641;51.676;5.808;2023-06-10T01:51:13;25.10;57.40
62583;DHT22;48641;51.676;5.808;2023-06-10T01:53:38;25.10;57.40
62583;DHT22;48641;51.676;5.808;2023-06-10T01:56:04;25.10;57.40
62583;DHT22;48641;51.676;5.808;2023-06-10T01:58:30;25.20;57.40
62583;DHT22;48641;51.676;5.808;2023-06-10T02:00:56;25.20;57.40
62583;DHT22;48641;51.676;5.808;2023-06-10T02:03:21;25.20;57.40
62583;DHT22;48641;51.676;5.808;2023-06-10T02:05:47;25.20;57.40
62583;DHT22;48641;51.676;5.808;2023-06-10T02:08:12;25.20;57.30
62583;DHT22;48641;51.676;5.808;2023-06-10T02:10:38;25.10;57.30
62583;DHT22;48641;51.676;5.808;2023-06-10T02:13:04;25.20;57.40
62583;DHT22;48641;51.676;5.808;2023-06-10T02:15:30;25.10;57.30
62583;DHT22;48641;51.676;5.808;2023-06-10T02:17:55;25.10;57.30
62583;DHT22;48641;51.676;5.808;2023-06-10T02:20:21;25.10;57.30
62583;DHT22;48641;51.676;5.808;2023-06-10T02:22:47;25.10;57.30
62583;DHT22;48641;51.676;5.808;2023-06-10T02:25:12;25.10;57.30
62583;DHT22;48641;51.676;5.808;2023-06-10T02:27:38;25.10;57.30
62583;DHT22;48641;51.676;5.808;2023-06-10T02:30:04;25.10;57.30
62583;DHT22;48641;51.676;5.808;2023-06-10T02:32:30;25.10;57.30
62583;DHT22;48641;51.676;5.808;2023-06-10T02:34:56;25.10;57.30
62583;DHT22;48641;51.676;5.808;2023-06-10T02:37:21;25.10;57.20
62583;DHT22;48641;51.676;5.808;2023-06-10T02:39:47;25.10;57.20
62583;DHT22;48641;51.676;5.808;2023-06-10T02:42:12;25.10;57.20
62583;DHT22;48641;51.676;5.808;2023-06-10T02:44:38;25.10;57.20
62583;DHT22;48641;51.676;5.808;2023-06-10T02:47:05;25.10;57.30
62583;DHT22;48641;51.676;5.808;2023-06-10T02:49:30;25.10;57.20
62583;DHT22;48641;51.676;5.808;2023-06-10T02:51:56;25.10;57.20
62583;DHT22;48641;51.676;5.808;2023-06-10T02:54:26;25.10;57.20
62583;DHT22;48641;51.676;5.808;2023-06-10T02:56:52;25.10;57.20
62583;DHT22;48641;51.676;5.808;2023-06-10T02:59:18;25.10;57.20
62583;DHT22;48641;51.676;5.808;2023-06-10T03:01:44;25.10;57.20
62583;DHT22;48641;51.676;5.808;2023-06-10T03:04:09;25.10;57.20
62583;DHT22;48641;51.676;5.808;2023-06-10T03:06:38;25.10;57.10
62583;DHT22;48641;51.676;5.808;2023-06-10T03:09:04;25.10;57.20
62583;DHT22;48641;51.676;5.808;2023-06-10T03:11:29;25.10;57.20
62583;DHT22;48641;51.676;5.808;2023-06-10T03:13:56;25.10;57.10
62583;DHT22;48641;51.676;5.808;2023-06-10T03:16:22;25.10;57.20
62583;DHT22;48641;51.676;5.808;2023-06-10T03:18:50;25.10;57.20
62583;DHT22;48641;51.676;5.808;2023-06-10T03:21:16;25.10;57.20
62583;DHT22;48641;51.676;5.808;2023-06-10T03:23:41;25.00;57.10
62583;DHT22;48641;51.676;5.808;2023-06-10T03:26:07;25.00;57.10
62583;DHT22;48641;51.676;5.808;2023-06-10T03:28:33;25.00;57.10
62583;DHT22;48641;51.676;5.808;2023-06-10T03:30:59;25.00;57.10
62583;DHT22;48641;51.676;5.808;2023-06-10T03:33:27;25.00;57.10
62583;DHT22;48641;51.676;5.808;2023-06-10T03:35:53;25.10;57.20
62583;DHT22;48641;51.676;5.808;2023-06-10T03:38:19;25.00;57.10
62583;DHT22;48641;51.676;5.808;2023-06-10T03:40:44;25.00;57.00
62583;DHT22;48641;51.676;5.808;2023-06-10T03:43:10;25.00;57.00
62583;DHT22;48641;51.676;5.808;2023-06-10T03:45:36;25.00;57.00
62583;DHT22;48641;51.676;5.808;2023-06-10T03:48:02;25.00;57.00
62583;DHT22;48641;51.676;5.808;2023-06-10T03:50:29;25.00;57.00
62583;DHT22;48641;51.676;5.808;2023-06-10T03:52:54;25.00;57.10
62583;DHT22;48641;51.676;5.808;2023-06-10T03:55:20;25.00;57.10
62583;DHT22;48641;51.676;5.808;2023-06-10T03:57:47;25.00;57.00
62583;DHT22;48641;51.676;5.808;2023-06-10T04:00:14;25.00;57.10
62583;DHT22;48641;51.676;5.808;2023-06-10T04:02:40;25.00;57.00
62583;DHT22;48641;51.676;5.808;2023-06-10T04:05:18;25.00;57.10
62583;DHT22;48641;51.676;5.808;2023-06-10T04:07:44;25.00;57.00
62583;DHT22;48641;51.676;5.808;2023-06-10T04:10:11;25.00;57.00
62583;DHT22;48641;51.676;5.808;2023-06-10T04:12:37;25.00;57.00
62583;DHT22;48641;51.676;5.808;2023-06-10T04:15:04;25.00;57.00
62583;DHT22;48641;51.676;5.808;2023-06-10T04:17:30;25.00;57.00
62583;DHT22;48641;51.676;5.808;2023-06-10T04:19:56;24.90;57.00
62583;DHT22;48641;51.676;5.808;2023-06-10T04:22:21;25.00;57.00
62583;DHT22;48641;51.676;5.808;2023-06-10T04:24:48;24.90;57.00
62583;DHT22;48641;51.676;5.808;2023-06-10T04:27:14;24.90;57.00
62583;DHT22;48641;51.676;5.808;2023-06-10T04:29:39;24.90;57.00
62583;DHT22;48641;51.676;5.808;2023-06-10T04:32:06;24.90;57.00
62583;DHT22;48641;51.676;5.808;2023-06-10T04:34:33;24.90;57.00
62583;DHT22;48641;51.676;5.808;2023-06-10T04:36:59;24.90;57.00
62583;DHT22;48641;51.676;5.808;2023-06-10T04:39:24;24.90;57.00
62583;DHT22;48641;51.676;5.808;2023-06-10T04:41:50;24.90;57.00
62583;DHT22;48641;51.676;5.808;2023-06-10T04:44:15;24.90;57.00
62583;DHT22;48641;51.676;5.808;2023-06-10T04:46:41;24.90;57.00
62583;DHT22;48641;51.676;5.808;2023-06-10T04:49:06;24.90;57.00
62583;DHT22;48641;51.676;5.808;2023-06-10T04:51:33;24.90;57.00
62583;DHT22;48641;51.676;5.808;2023-06-10T04:53:59;24.90;57.00
62583;DHT22;48641;51.676;5.808;2023-06-10T04:56:29;24.90;57.00
62583;DHT22;48641;51.676;5.808;2023-06-10T04:58:56;24.90;57.00
62583;DHT22;48641;51.676;5.808;2023-06-10T05:01:22;24.90;57.00
62583;DHT22;48641;51.676;5.808;2023-06-10T05:03:47;24.90;57.00
62583;DHT22;48641;51.676;5.808;2023-06-10T05:06:13;24.90;57.00
62583;DHT22;48641;51.676;5.808;2023-06-10T05:08:39;24.90;57.00
62583;DHT22;48641;51.676;5.808;2023-06-10T05:11:04;24.90;57.00
62583;DHT22;48641;51.676;5.808;2023-06-10T05:13:30;24.90;57.00
62583;DHT22;48641;51.676;5.808;2023-06-10T05:15:55;24.90;57.00
62583;DHT22;48641;51.676;5.808;2023-06-10T05:18:21;24.90;57.00
62583;DHT22;48641;51.676;5.808;2023-06-10T05:20:46;24.90;57.00
62583;DHT22;48641;51.676;5.808;2023-06-10T05:23:12;24.90;57.00
62583;DHT22;48641;51.676;5.808;2023-06-10T05:25:38;24.80;57.00
62583;DHT22;48641;51.676;5.808;2023-06-10T05:28:03;24.80;57.00
62583;DHT22;48641;51.676;5.808;2023-06-10T05:30:29;24.80;57.00
62583;DHT22;48641;51.676;5.808;2023-06-10T05:32:55;24.80;57.00
62583;DHT22;48641;51.676;5.808;2023-06-10T05:35:21;24.80;57.00
62583;DHT22;48641;51.676;5.808;2023-06-10T05:37:48;24.80;57.00
62583;DHT22;48641;51.676;5.808;2023-06-10T05:40:14;24.80;57.00
62583;DHT22;48641;51.676;5.808;2023-06-10T05:42:39;24.80;57.00
62583;DHT22;48641;51.676;5.808;2023-06-10T05:45:09;24.80;57.00
62583;DHT22;48641;51.676;5.808;2023-06-10T05:47:34;24.80;58.00
62583;DHT22;48641;51.676;5.808;2023-06-10T05:50:00;24.80;57.00
62583;DHT22;48641;51.676;5.808;2023-06-10T05:52:26;24.80;56.90
62583;DHT22;48641;51.676;5.808;2023-06-10T05:54:51;24.80;57.10
62583;DHT22;48641;51.676;5.808;2023-06-10T05:57:17;24.80;57.00
62583;DHT22;48641;51.676;5.808;2023-06-10T05:59:43;24.80;57.00
62583;DHT22;48641;51.676;5.808;2023-06-10T06:02:08;24.80;57.10
62583;DHT22;48641;51.676;5.808;2023-06-10T06:04:34;24.80;57.00
62583;DHT22;48641;51.676;5.808;2023-06-10T06:07:00;24.70;57.00
62583;DHT22;48641;51.676;5.808;2023-06-10T06:09:25;24.80;57.10
62583;DHT22;48641;51.676;5.808;2023-06-10T06:11:51;24.80;57.10
62583;DHT22;48641;51.676;5.808;2023-06-10T06:14:17;24.70;57.00
62583;DHT22;48641;51.676;5.808;2023-06-10T06:16:42;24.80;57.10
62583;DHT22;48641;51.676;5.808;2023-06-10T06:19:08;24.80;57.00
62583;DHT22;48641;51.676;5.808;2023-06-10T06:21:34;24.70;57.00
62583;DHT22;48641;51.676;5.808;2023-06-10T06:24:00;24.80;57.10
62583;DHT22;48641;51.676;5.808;2023-06-10T06:26:26;24.80;57.00
62583;DHT22;48641;51.676;5.808;2023-06-10T06:28:52;24.80;57.10
62583;DHT22;48641;51.676;5.808;2023-06-10T06:31:17;24.70;57.00
62583;DHT22;48641;51.676;5.808;2023-06-10T06:33:43;24.70;57.00
62583;DHT22;48641;51.676;5.808;2023-06-10T06:36:09;24.70;57.00
62583;DHT22;48641;51.676;5.808;2023-06-10T06:38:34;24.70;57.00
62583;DHT22;48641;51.676;5.808;2023-06-10T06:41:00;24.70;57.10
62583;DHT22;48641;51.676;5.808;2023-06-10T06:43:29;24.70;58.10
62583;DHT22;48641;51.676;5.808;2023-06-10T06:45:56;24.70;57.10
62583;DHT22;48641;51.676;5.808;2023-06-10T06:48:23;24.70;57.10
62583;DHT22;48641;51.676;5.808;2023-06-10T06:50:48;24.70;57.10
62583;DHT22;48641;51.676;5.808;2023-06-10T06:53:14;24.70;57.10
62583;DHT22;48641;51.676;5.808;2023-06-10T06:55:40;24.70;57.00
62583;DHT22;48641;51.676;5.808;2023-06-10T06:58:05;24.70;57.10
62583;DHT22;48641;51.676;5.808;2023-06-10T07:00:31;24.70;57.10
62583;DHT22;48641;51.676;5.808;2023-06-10T07:02:57;24.70;57.10
62583;DHT22;48641;51.676;5.808;2023-06-10T07:05:24;24.70;56.60
62583;DHT22;48641;51.676;5.808;2023-06-10T07:07:53;24.70;56.60
62583;DHT22;48641;51.676;5.808;2023-06-10T07:10:24;24.70;56.80
62583;DHT22;48641;51.676;5.808;2023-06-10T07:12:50;24.70;56.80
62583;DHT22;48641;51.676;5.808;2023-06-10T07:15:16;24.70;56.80
62583;DHT22;48641;51.676;5.808;2023-06-10T07:17:41;24.70;57.90
62583;DHT22;48641;51.676;5.808;2023-06-10T07:20:07;24.70;56.90
62583;DHT22;48641;51.676;5.808;2023-06-10T07:22:33;24.70;56.90
62583;DHT22;48641;51.676;5.808;2023-06-10T07:24:59;24.70;56.90
62583;DHT22;48641;51.676;5.808;2023-06-10T07:27:25;24.70;56.90
62583;DHT22;48641;51.676;5.808;2023-06-10T07:29:51;24.70;57.00
62583;DHT22;48641;51.676;5.808;2023-06-10T07:32:17;24.70;57.00
62583;DHT22;48641;51.676;5.808;2023-06-10T07:34:43;24.70;57.00
62583;DHT22;48641;51.676;5.808;2023-06-10T07:37:09;24.70;57.00
62583;DHT22;48641;51.676;5.808;2023-06-10T07:39:34;24.70;57.00
62583;DHT22;48641;51.676;5.808;2023-06-10T07:42:00;24.70;57.10
62583;DHT22;48641;51.676;5.808;2023-06-10T07:44:26;24.70;57.10
62583;DHT22;48641;51.676;5.808;2023-06-10T07:46:52;24.70;57.10
62583;DHT22;48641;51.676;5.808;2023-06-10T07:49:17;24.70;57.10
62583;DHT22;48641;51.676;5.808;2023-06-10T07:51:43;24.70;57.10
62583;DHT22;48641;51.676;5.808;2023-06-10T07:54:08;24.70;57.10
62583;DHT22;48641;51.676;5.808;2023-06-10T07:56:34;24.70;57.10
62583;DHT22;48641;51.676;5.808;2023-06-10T07:59:00;24.70;57.10
62583;DHT22;48641;51.676;5.808;2023-06-10T08:01:25;24.70;57.20
62583;DHT22;48641;51.676;5.808;2023-06-10T08:03:51;24.70;57.10
62583;DHT22;48641;51.676;5.808;2023-06-10T08:06:17;24.70;57.10
62583;DHT22;48641;51.676;5.808;2023-06-10T08:08:43;24.70;57.20
62583;DHT22;48641;51.676;5.808;2023-06-10T08:11:11;24.70;57.20
62583;DHT22;48641;51.676;5.808;2023-06-10T08:13:36;24.70;57.20
62583;DHT22;48641;51.676;5.808;2023-06-10T08:16:02;24.70;57.20
62583;DHT22;48641;51.676;5.808;2023-06-10T08:18:28;24.70;57.30
62583;DHT22;48641;51.676;5.808;2023-06-10T08:20:54;24.70;57.30
62583;DHT22;48641;51.676;5.808;2023-06-10T08:23:20;24.70;57.20
62583;DHT22;48641;51.676;5.808;2023-06-10T08:25:45;24.70;57.20
62583;DHT22;48641;51.676;5.808;2023-06-10T08:28:11;24.70;57.20
62583;DHT22;48641;51.676;5.808;2023-06-10T08:30:36;24.70;57.20
62583;DHT22;48641;51.676;5.808;2023-06-10T08:33:02;24.70;57.20
62583;DHT22;48641;51.676;5.808;2023-06-10T08:35:27;24.70;57.30
62583;DHT22;48641;51.676;5.808;2023-06-10T08:37:53;24.70;57.20
62583;DHT22;48641;51.676;5.808;2023-06-10T08:40:19;24.70;57.30
62583;DHT22;48641;51.676;5.808;2023-06-10T08:43:06;24.70;57.30
62583;DHT22;48641;51.676;5.808;2023-06-10T08:45:35;24.70;57.30
62583;DHT22;48641;51.676;5.808;2023-06-10T08:48:03;24.70;57.30
62583;DHT22;48641;51.676;5.808;2023-06-10T08:50:36;24.70;57.40
62583;DHT22;48641;51.676;5.808;2023-06-10T08:53:07;24.60;57.30
62583;DHT22;48641;51.676;5.808;2023-06-10T08:55:36;24.70;57.30
62583;DHT22;48641;51.676;5.808;2023-06-10T08:58:02;24.70;57.30
62583;DHT22;48641;51.676;5.808;2023-06-10T09:00:30;24.70;57.30
62583;DHT22;48641;51.676;5.808;2023-06-10T09:02:56;24.70;57.30
62583;DHT22;48641;51.676;5.808;2023-06-10T09:05:22;24.70;57.40
62583;DHT22;48641;51.676;5.808;2023-06-10T09:07:49;24.70;57.40
62583;DHT22;48641;51.676;5.808;2023-06-10T09:10:15;24.70;57.40
62583;DHT22;48641;51.676;5.808;2023-06-10T09:12:41;24.70;57.40
62583;DHT22;48641;51.676;5.808;2023-06-10T09:15:07;24.70;57.40
62583;DHT22;48641;51.676;5.808;2023-06-10T09:17:33;24.70;57.40
62583;DHT22;48641;51.676;5.808;2023-06-10T09:20:00;24.70;57.40
62583;DHT22;48641;51.676;5.808;2023-06-10T09:22:28;24.70;57.40
62583;DHT22;48641;51.676;5.808;2023-06-10T09:25:04;24.70;57.40
62583;DHT22;48641;51.676;5.808;2023-06-10T09:27:31;24.70;57.30
62583;DHT22;48641;51.676;5.808;2023-06-10T09:29:58;24.70;57.40
62583;DHT22;48641;51.676;5.808;2023-06-10T09:32:24;24.70;57.30
62583;DHT22;48641;51.676;5.808;2023-06-10T09:34:50;24.70;57.40
62583;DHT22;48641;51.676;5.808;2023-06-10T09:37:22;24.70;57.40
62583;DHT22;48641;51.676;5.808;2023-06-10T09:40:05;24.70;57.40
62583;DHT22;48641;51.676;5.808;2023-06-10T09:42:35;24.60;57.60
62583;DHT22;48641;51.676;5.808;2023-06-10T09:45:05;24.60;57.70
62583;DHT22;48641;51.676;5.808;2023-06-10T09:47:31;24.60;57.70
62583;DHT22;48641;51.676;5.808;2023-06-10T09:49:57;24.60;57.70
62583;DHT22;48641;51.676;5.808;2023-06-10T09:54:50;24.70;57.70
62583;DHT22;48641;51.676;5.808;2023-06-10T09:57:18;24.70;57.60
62583;DHT22;48641;51.676;5.808;2023-06-10T09:59:45;24.70;57.60
62583;DHT22;48641;51.676;5.808;2023-06-10T10:02:17;24.70;57.60
62583;DHT22;48641;51.676;5.808;2023-06-10T10:04:44;24.70;57.50
62583;DHT22;48641;51.676;5.808;2023-06-10T10:07:10;24.70;57.60
62583;DHT22;48641;51.676;5.808;2023-06-10T10:09:40;24.70;57.10
62583;DHT22;48641;51.676;5.808;2023-06-10T10:12:15;24.70;57.00
62583;DHT22;48641;51.676;5.808;2023-06-10T10:14:46;24.70;57.00
62583;DHT22;48641;51.676;5.808;2023-06-10T10:17:14;24.70;57.10
62583;DHT22;48641;51.676;5.808;2023-06-10T10:19:46;24.70;57.20
62583;DHT22;48641;51.676;5.808;2023-06-10T10:22:25;24.70;57.30
62583;DHT22;48641;51.676;5.808;2023-06-10T10:24:55;24.70;57.30
62583;DHT22;48641;51.676;5.808;2023-06-10T10:27:33;24.80;57.50
62583;DHT22;48641;51.676;5.808;2023-06-10T10:29:59;24.80;57.50
62583;DHT22;48641;51.676;5.808;2023-06-10T10:32:38;24.70;57.50
62583;DHT22;48641;51.676;5.808;2023-06-10T10:35:08;24.80;57.50
62583;DHT22;48641;51.676;5.808;2023-06-10T10:37:35;24.80;57.60
62583;DHT22;48641;51.676;5.808;2023-06-10T10:40:02;24.80;57.60
62583;DHT22;48641;51.676;5.808;2023-06-10T10:42:29;24.80;57.60
62583;DHT22;48641;51.676;5.808;2023-06-10T10:44:55;24.80;57.60
62583;DHT22;48641;51.676;5.808;2023-06-10T10:47:21;24.80;57.70
62583;DHT22;48641;51.676;5.808;2023-06-10T10:49:51;24.80;57.70
62583;DHT22;48641;51.676;5.808;2023-06-10T10:52:17;24.80;57.70
62583;DHT22;48641;51.676;5.808;2023-06-10T10:54:45;24.80;58.70
62583;DHT22;48641;51.676;5.808;2023-06-10T10:57:15;24.80;57.80
62583;DHT22;48641;51.676;5.808;2023-06-10T10:59:59;24.80;57.70
62583;DHT22;48641;51.676;5.808;2023-06-10T11:04:57;24.90;57.80
62583;DHT22;48641;51.676;5.808;2023-06-10T11:07:24;24.90;57.90
62583;DHT22;48641;51.676;5.808;2023-06-10T11:10:29;24.90;57.80
62583;DHT22;48641;51.676;5.808;2023-06-10T11:12:56;24.90;57.70
62583;DHT22;48641;51.676;5.808;2023-06-10T11:15:25;24.90;57.90
62583;DHT22;48641;51.676;5.808;2023-06-10T11:20:57;24.90;57.90
62583;DHT22;48641;51.676;5.808;2023-06-10T11:31:24;24.90;58.20
62583;DHT22;48641;51.676;5.808;2023-06-10T11:34:05;24.90;58.20
62583;DHT22;48641;51.676;5.808;2023-06-10T11:36:32;25.00;59.10
62583;DHT22;48641;51.676;5.808;2023-06-10T11:38:59;25.00;58.20
62583;DHT22;48641;51.676;5.808;2023-06-10T11:41:26;25.00;58.10
62583;DHT22;48641;51.676;5.808;2023-06-10T11:43:53;25.10;58.10
62583;DHT22;48641;51.676;5.808;2023-06-10T11:46:19;25.10;58.00
62583;DHT22;48641;51.676;5.808;2023-06-10T11:48:50;25.10;58.00
62583;DHT22;48641;51.676;5.808;2023-06-10T11:51:16;25.10;58.00
62583;DHT22;48641;51.676;5.808;2023-06-10T11:53:44;25.10;57.90
62583;DHT22;48641;51.676;5.808;2023-06-10T11:56:10;25.10;57.90
62583;DHT22;48641;51.676;5.808;2023-06-10T11:58:36;25.10;57.90
62583;DHT22;48641;51.676;5.808;2023-06-10T12:01:01;25.10;58.00
62583;DHT22;48641;51.676;5.808;2023-06-10T12:03:36;25.20;58.00
62583;DHT22;48641;51.676;5.808;2023-06-10T12:06:04;25.20;57.90
62583;DHT22;48641;51.676;5.808;2023-06-10T12:08:30;25.20;58.00
62583;DHT22;48641;51.676;5.808;2023-06-10T12:10:59;25.30;58.00
62583;DHT22;48641;51.676;5.808;2023-06-10T12:13:28;25.30;58.00
62583;DHT22;48641;51.676;5.808;2023-06-10T12:15:54;25.30;57.90
62583;DHT22;48641;51.676;5.808;2023-06-10T12:18:23;25.30;57.90
62583;DHT22;48641;51.676;5.808;2023-06-10T12:20:50;25.30;58.90
62583;DHT22;48641;51.676;5.808;2023-06-10T12:23:17;25.30;58.00
62583;DHT22;48641;51.676;5.808;2023-06-10T12:25:53;25.30;57.90
62583;DHT22;48641;51.676;5.808;2023-06-10T12:28:26;25.30;57.80
62583;DHT22;48641;51.676;5.808;2023-06-10T12:31:06;25.30;57.90
62583;DHT22;48641;51.676;5.808;2023-06-10T12:33:33;25.40;58.00
62583;DHT22;48641;51.676;5.808;2023-06-10T12:35:58;25.30;58.00
62583;DHT22;48641;51.676;5.808;2023-06-10T12:38:25;25.40;58.00
62583;DHT22;48641;51.676;5.808;2023-06-10T12:40:54;25.40;58.00
62583;DHT22;48641;51.676;5.808;2023-06-10T12:43:22;25.40;58.00
62583;DHT22;48641;51.676;5.808;2023-06-10T12:45:49;25.40;58.90
62583;DHT22;48641;51.676;5.808;2023-06-10T12:48:19;25.50;58.00
62583;DHT22;48641;51.676;5.808;2023-06-10T12:50:51;25.40;57.90
62583;DHT22;48641;51.676;5.808;2023-06-10T12:53:18;25.40;57.90
62583;DHT22;48641;51.676;5.808;2023-06-10T12:55:44;25.40;57.90
62583;DHT22;48641;51.676;5.808;2023-06-10T12:58:13;25.40;57.80
62583;DHT22;48641;51.676;5.808;2023-06-10T13:00:39;25.50;58.00
62583;DHT22;48641;51.676;5.808;2023-06-10T13:03:06;25.50;58.10
62583;DHT22;48641;51.676;5.808;2023-06-10T13:05:32;25.50;58.00
62583;DHT22;48641;51.676;5.808;2023-06-10T13:07:58;25.50;58.10
62583;DHT22;48641;51.676;5.808;2023-06-10T13:10:25;25.50;58.00
62583;DHT22;48641;51.676;5.808;2023-06-10T13:12:51;25.60;58.10
62583;DHT22;48641;51.676;5.808;2023-06-10T13:15:17;25.60;58.00
62583;DHT22;48641;51.676;5.808;2023-06-10T13:17:43;25.60;58.00
62583;DHT22;48641;51.676;5.808;2023-06-10T13:20:12;25.60;58.00
62583;DHT22;48641;51.676;5.808;2023-06-10T13:22:37;25.60;57.90
62583;DHT22;48641;51.676;5.808;2023-06-10T13:25:04;25.60;57.90
62583;DHT22;48641;51.676;5.808;2023-06-10T13:27:30;25.60;57.90
62583;DHT22;48641;51.676;5.808;2023-06-10T13:29:56;25.60;57.90
62583;DHT22;48641;51.676;5.808;2023-06-10T13:32:22;25.60;58.00
62583;DHT22;48641;51.676;5.808;2023-06-10T13:34:47;25.70;58.10
62583;DHT22;48641;51.676;5.808;2023-06-10T13:37:14;25.70;58.10
62583;DHT22;48641;51.676;5.808;2023-06-10T13:39:42;25.70;58.10
62583;DHT22;48641;51.676;5.808;2023-06-10T13:42:08;25.70;58.10
62583;DHT22;48641;51.676;5.808;2023-06-10T13:44:34;25.70;58.10
62583;DHT22;48641;51.676;5.808;2023-06-10T13:47:02;25.70;58.00
62583;DHT22;48641;51.676;5.808;2023-06-10T13:49:28;25.70;58.00
62583;DHT22;48641;51.676;5.808;2023-06-10T13:51:54;25.70;58.00
62583;DHT22;48641;51.676;5.808;2023-06-10T13:54:19;25.70;58.00
62583;DHT22;48641;51.676;5.808;2023-06-10T13:56:46;25.70;58.00
62583;DHT22;48641;51.676;5.808;2023-06-10T13:59:12;25.70;57.90
62583;DHT22;48641;51.676;5.808;2023-06-10T14:01:38;25.70;58.00
62583;DHT22;48641;51.676;5.808;2023-06-10T14:04:04;25.80;58.10
62583;DHT22;48641;51.676;5.808;2023-06-10T14:06:30;25.80;58.10
62583;DHT22;48641;51.676;5.808;2023-06-10T14:08:56;25.80;58.10
62583;DHT22;48641;51.676;5.808;2023-06-10T14:11:21;25.90;58.10
62583;DHT22;48641;51.676;5.808;2023-06-10T14:13:47;25.80;58.00
62583;DHT22;48641;51.676;5.808;2023-06-10T14:16:13;25.90;58.10
62583;DHT22;48641;51.676;5.808;2023-06-10T14:18:38;25.90;58.00
62583;DHT22;48641;51.676;5.808;2023-06-10T14:21:04;25.90;58.10
62583;DHT22;48641;51.676;5.808;2023-06-10T14:23:30;25.80;58.10
62583;DHT22;48641;51.676;5.808;2023-06-10T14:25:55;25.90;58.10
62583;DHT22;48641;51.676;5.808;2023-06-10T14:28:21;25.90;58.10
62583;DHT22;48641;51.676;5.808;2023-06-10T14:30:46;25.90;58.00
62583;DHT22;48641;51.676;5.808;2023-06-10T14:33:12;25.90;58.20
62583;DHT22;48641;51.676;5.808;2023-06-10T14:35:37;25.90;58.20
62583;DHT22;48641;51.676;5.808;2023-06-10T14:38:03;25.90;58.20
62583;DHT22;48641;51.676;5.808;2023-06-10T14:40:29;25.90;58.10
62583;DHT22;48641;51.676;5.808;2023-06-10T14:42:55;25.90;58.10
62583;DHT22;48641;51.676;5.808;2023-06-10T14:45:21;26.00;58.20
62583;DHT22;48641;51.676;5.808;2023-06-10T14:47:46;26.00;58.10
62583;DHT22;48641;51.676;5.808;2023-06-10T14:50:13;26.00;58.10
62583;DHT22;48641;51.676;5.808;2023-06-10T14:52:39;25.90;58.10
62583;DHT22;48641;51.676;5.808;2023-06-10T14:55:05;26.00;58.10
62583;DHT22;48641;51.676;5.808;2023-06-10T14:57:31;26.00;58.10
62583;DHT22;48641;51.676;5.808;2023-06-10T14:59:56;26.00;58.10
62583;DHT22;48641;51.676;5.808;2023-06-10T15:02:23;26.00;58.10
62583;DHT22;48641;51.676;5.808;2023-06-10T15:04:48;26.00;58.20
62583;DHT22;48641;51.676;5.808;2023-06-10T15:07:14;26.00;58.10
62583;DHT22;48641;51.676;5.808;2023-06-10T15:09:43;26.00;58.10
62583;DHT22;48641;51.676;5.808;2023-06-10T15:12:09;26.00;58.10
62583;DHT22;48641;51.676;5.808;2023-06-10T15:14:36;26.00;58.10
62583;DHT22;48641;51.676;5.808;2023-06-10T15:17:01;26.00;58.10
62583;DHT22;48641;51.676;5.808;2023-06-10T15:19:27;26.00;58.10
62583;DHT22;48641;51.676;5.808;2023-06-10T15:21:53;26.10;58.10
62583;DHT22;48641;51.676;5.808;2023-06-10T15:24:19;26.10;58.20
62583;DHT22;48641;51.676;5.808;2023-06-10T15:26:45;26.00;58.10
62583;DHT22;48641;51.676;5.808;2023-06-10T15:29:10;26.10;58.20
62583;DHT22;48641;51.676;5.808;2023-06-10T15:31:36;26.00;58.10
62583;DHT22;48641;51.676;5.808;2023-06-10T15:34:03;26.10;58.20
62583;DHT22;48641;51.676;5.808;2023-06-10T15:36:29;26.10;58.20
62583;DHT22;48641;51.676;5.808;2023-06-10T15:39:01;26.10;58.20
62583;DHT22;48641;51.676;5.808;2023-06-10T15:41:28;26.10;58.10
62583;DHT22;48641;51.676;5.808;2023-06-10T15:43:54;26.10;58.10
62583;DHT22;48641;51.676;5.808;2023-06-10T15:46:19;26.10;58.10
62583;DHT22;48641;51.676;5.808;2023-06-10T15:48:45;26.10;58.10